createdAt,value
2024-03-24T00:00:06.798Z,722.00
2024-03-24T00:01:06.882Z,753.00
2024-03-24T00:02:06.943Z,777.00
2024-03-24T00:03:07.046Z,803.00
2024-03-24T00:04:07.197Z,822.00
2024-03-24T00:05:07.259Z,828.00
2024-03-24T00:06:07.314Z,848.00
2024-03-24T00:07:07.449Z,838.00
2024-03-24T00:08:07.475Z,865.00
2024-03-24T00:09:07.558Z,872.00
2024-03-24T00:10:07.683Z,875.00
2024-03-24T00:11:07.866Z,880.00
2024-03-24T00:12:07.838Z,873.00
2024-03-24T00:13:07.952Z,882.00
2024-03-24T00:14:07.988Z,878.00
2024-03-24T00:15:08.096Z,864.00
2024-03-24T00:16:08.171Z,874.00
2024-03-24T00:17:08.243Z,873.00
2024-03-24T00:18:08.322Z,858.00
2024-03-24T00:19:08.419Z,862.00
2024-03-24T00:20:08.494Z,846.00
2024-03-24T00:21:08.551Z,836.00
2024-03-24T00:22:08.667Z,852.00
2024-03-24T00:23:08.724Z,844.00
2024-03-24T00:24:08.767Z,848.00
2024-03-24T00:25:08.893Z,872.00
2024-03-24T00:26:08.936Z,882.00
2024-03-24T00:27:09.018Z,890.00
2024-03-24T00:28:09.109Z,901.00
2024-03-24T00:29:09.167Z,911.00
2024-03-24T00:30:09.232Z,919.00
2024-03-24T00:31:09.376Z,931.00
2024-03-24T00:32:09.438Z,953.00
2024-03-24T00:33:09.478Z,953.00
2024-03-24T00:34:09.590Z,966.00
2024-03-24T00:35:09.650Z,973.00
2024-03-24T00:36:09.730Z,982.00
2024-03-24T00:37:09.860Z,988.00
2024-03-24T00:38:09.888Z,993.00
2024-03-24T00:39:09.980Z,1000.00
2024-03-24T00:40:10.099Z,1014.00
2024-03-24T00:41:10.110Z,1013.00
2024-03-24T00:42:10.225Z,1023.00
2024-03-24T00:43:10.321Z,1025.00
2024-03-24T00:44:10.392Z,1031.00
2024-03-24T00:45:10.450Z,1043.00
2024-03-24T00:46:10.526Z,1042.00
2024-03-24T00:47:10.612Z,1050.00
2024-03-24T00:48:10.681Z,1058.00
2024-03-24T00:49:10.777Z,1059.00
2024-03-24T00:50:10.844Z,1064.00
2024-03-24T00:51:10.952Z,1059.00
2024-03-24T00:52:11.010Z,1063.00
2024-03-24T00:53:11.076Z,1069.00
2024-03-24T00:54:11.156Z,1071.00
2024-03-24T00:55:11.243Z,1075.00
2024-03-24T00:56:11.322Z,1078.00
2024-03-24T00:57:11.405Z,1077.00
2024-03-24T00:58:11.520Z,1081.00
2024-03-24T00:59:11.573Z,1078.00
2024-03-24T01:00:11.677Z,1092.00
2024-03-24T01:01:11.814Z,1092.00
2024-03-24T01:02:11.848Z,1092.00
2024-03-24T01:03:11.971Z,1098.00
2024-03-24T01:04:12.004Z,1092.00
2024-03-24T01:05:12.123Z,1095.00
2024-03-24T01:06:12.181Z,1095.00
2024-03-24T01:07:12.268Z,1087.00
2024-03-24T01:08:12.362Z,1096.00
2024-03-24T01:09:12.461Z,1101.00
2024-03-24T01:10:12.555Z,1099.00
2024-03-24T01:11:12.629Z,1097.00
2024-03-24T01:12:12.679Z,1098.00
2024-03-24T01:13:12.789Z,1104.00
2024-03-24T01:14:12.899Z,1103.00
2024-03-24T01:15:12.969Z,1117.00
2024-03-24T01:16:13.059Z,1123.00
2024-03-24T01:17:13.137Z,1127.00
2024-03-24T01:18:13.230Z,1135.00
2024-03-24T01:19:13.305Z,1139.00
2024-03-24T01:20:13.403Z,1137.00
2024-03-24T01:21:13.510Z,1139.00
2024-03-24T01:22:13.564Z,1133.00
2024-03-24T01:23:13.642Z,1127.00
2024-03-24T01:24:13.706Z,1128.00
2024-03-24T01:25:13.851Z,1125.00
2024-03-24T01:26:13.903Z,1126.00
2024-03-24T01:27:13.987Z,1118.00
2024-03-24T01:28:14.058Z,1108.00
2024-03-24T01:29:14.146Z,1091.00
2024-03-24T01:30:14.242Z,1090.00
2024-03-24T01:31:14.293Z,1097.00
2024-03-24T01:32:14.392Z,1093.00
2024-03-24T01:33:14.515Z,1071.00
2024-03-24T01:34:14.588Z,1063.00
2024-03-24T01:35:14.665Z,1034.00
2024-03-24T01:36:14.743Z,1032.00
2024-03-24T01:37:14.810Z,1018.00
2024-03-24T01:38:14.908Z,1013.00
2024-03-24T01:39:14.974Z,1001.00
2024-03-24T01:40:15.140Z,1003.00
2024-03-24T01:41:15.194Z,989.00
2024-03-24T01:42:15.291Z,996.00
2024-03-24T01:43:15.368Z,995.00
2024-03-24T01:44:15.441Z,985.00
2024-03-24T01:45:15.521Z,976.00
2024-03-24T01:46:15.695Z,968.00
2024-03-24T01:47:15.721Z,985.00
2024-03-24T01:48:15.832Z,978.00
2024-03-24T01:49:15.902Z,993.00
2024-03-24T01:50:16.000Z,989.00
2024-03-24T01:51:16.055Z,1007.00
2024-03-24T01:52:16.178Z,1006.00
2024-03-24T01:53:16.290Z,1010.00
2024-03-24T01:54:16.369Z,1019.00
2024-03-24T01:55:16.465Z,1028.00
2024-03-24T01:56:16.515Z,1036.00
2024-03-24T01:57:16.610Z,1048.00
2024-03-24T01:58:16.710Z,1056.00
2024-03-24T01:59:16.789Z,1058.00
2024-03-24T02:00:16.864Z,1064.00
2024-03-24T02:01:16.950Z,1073.00
2024-03-24T02:02:17.056Z,1071.00
2024-03-24T02:03:17.109Z,1076.00
2024-03-24T02:04:17.178Z,1079.00
2024-03-24T02:05:17.286Z,1072.00
2024-03-24T02:06:17.348Z,1074.00
2024-03-24T02:07:17.453Z,1073.00
2024-03-24T02:08:17.562Z,1097.00
2024-03-24T02:09:17.608Z,1072.00
2024-03-24T02:10:17.683Z,1089.00
2024-03-24T02:11:17.772Z,1089.00
2024-03-24T02:12:17.898Z,1088.00
2024-03-24T02:13:18.029Z,1100.00
2024-03-24T02:14:18.120Z,1090.00
2024-03-24T02:15:18.196Z,1094.00
2024-03-24T02:16:18.271Z,1103.00
2024-03-24T02:17:18.347Z,1096.00
2024-03-24T02:18:18.495Z,1097.00
2024-03-24T02:19:18.545Z,1107.00
2024-03-24T02:20:18.629Z,1104.00
2024-03-24T02:21:18.723Z,1096.00
2024-03-24T02:22:18.829Z,1097.00
2024-03-24T02:23:18.880Z,1108.00
2024-03-24T02:24:18.993Z,1112.00
2024-03-24T02:25:19.058Z,1095.00
2024-03-24T02:26:19.134Z,1104.00
2024-03-24T02:27:19.224Z,1102.00
2024-03-24T02:28:19.349Z,1100.00
2024-03-24T02:29:19.434Z,1095.00
2024-03-24T02:30:19.495Z,1103.00
2024-03-24T02:31:19.574Z,1108.00
2024-03-24T02:32:19.654Z,1105.00
2024-03-24T02:33:19.772Z,1106.00
2024-03-24T02:34:19.841Z,1106.00
2024-03-24T02:35:19.911Z,1114.00
2024-03-24T02:36:20.000Z,1115.00
2024-03-24T02:37:20.065Z,1125.00
2024-03-24T02:38:20.159Z,1110.00
2024-03-24T02:39:20.250Z,1113.00
2024-03-24T02:40:20.378Z,1115.00
2024-03-24T02:41:20.418Z,1113.00
2024-03-24T02:42:20.496Z,1114.00
2024-03-24T02:43:20.584Z,1126.00
2024-03-24T02:44:20.695Z,1122.00
2024-03-24T02:45:20.772Z,1123.00
2024-03-24T02:46:20.852Z,1124.00
2024-03-24T02:47:21.480Z,1118.00
2024-03-24T02:48:21.022Z,1125.00
2024-03-24T02:49:21.092Z,1118.00
2024-03-24T02:50:21.213Z,1126.00
2024-03-24T02:51:21.250Z,1128.00
2024-03-24T02:52:21.363Z,1132.00
2024-03-24T02:53:21.439Z,1122.00
2024-03-24T02:54:21.514Z,1138.00
2024-03-24T02:55:21.607Z,1126.00
2024-03-24T02:56:21.667Z,1120.00
2024-03-24T02:57:21.724Z,1126.00
2024-03-24T02:58:21.952Z,1128.00
2024-03-24T02:59:21.917Z,1131.00
2024-03-24T03:00:22.051Z,1130.00
2024-03-24T03:01:22.106Z,1126.00
2024-03-24T03:02:22.169Z,1125.00
2024-03-24T03:03:22.295Z,1129.00
2024-03-24T03:04:22.383Z,1128.00
2024-03-24T03:05:22.447Z,1126.00
2024-03-24T03:06:22.545Z,1130.00
2024-03-24T03:07:22.673Z,1137.00
2024-03-24T03:08:22.745Z,1125.00
2024-03-24T03:09:22.796Z,1137.00
2024-03-24T03:10:22.920Z,1144.00
2024-03-24T03:11:22.999Z,1138.00
2024-03-24T03:12:23.090Z,1137.00
2024-03-24T03:13:23.214Z,1144.00
2024-03-24T03:14:23.245Z,1146.00
2024-03-24T03:15:23.335Z,1142.00
2024-03-24T03:16:23.432Z,1137.00
2024-03-24T03:17:23.626Z,1136.00
2024-03-24T03:18:23.644Z,1145.00
2024-03-24T03:19:23.727Z,1140.00
2024-03-24T03:20:23.794Z,1145.00
2024-03-24T03:21:23.885Z,1141.00
2024-03-24T03:22:23.958Z,1151.00
2024-03-24T03:23:24.070Z,1151.00
2024-03-24T03:24:24.131Z,1144.00
2024-03-24T03:25:24.240Z,1142.00
2024-03-24T03:26:24.280Z,1139.00
2024-03-24T03:27:24.473Z,1152.00
2024-03-24T03:28:24.465Z,1147.00
2024-03-24T03:29:24.545Z,1148.00
2024-03-24T03:30:24.635Z,1139.00
2024-03-24T03:31:24.708Z,1147.00
2024-03-24T03:32:24.860Z,1134.00
2024-03-24T03:33:24.976Z,1155.00
2024-03-24T03:34:24.939Z,1142.00
2024-03-24T03:35:25.038Z,1145.00
2024-03-24T03:36:25.121Z,1143.00
2024-03-24T03:37:25.170Z,1152.00
2024-03-24T03:38:25.263Z,1146.00
2024-03-24T03:39:25.331Z,1140.00
2024-03-24T03:40:25.411Z,1129.00
2024-03-24T03:41:25.510Z,1136.00
2024-03-24T03:42:25.583Z,1136.00
2024-03-24T03:43:25.676Z,1140.00
2024-03-24T03:44:25.759Z,1152.00
2024-03-24T03:45:25.813Z,1145.00
2024-03-24T03:46:25.896Z,1150.00
2024-03-24T03:47:25.990Z,1145.00
2024-03-24T03:48:26.201Z,1149.00
2024-03-24T03:49:26.164Z,1155.00
2024-03-24T03:50:26.222Z,1144.00
2024-03-24T03:51:26.312Z,1155.00
2024-03-24T03:52:26.465Z,1149.00
2024-03-24T03:53:26.568Z,1152.00
2024-03-24T03:54:26.631Z,1141.00
2024-03-24T03:55:26.728Z,1143.00
2024-03-24T03:56:26.818Z,1134.00
2024-03-24T03:57:26.922Z,1147.00
2024-03-24T03:58:26.968Z,1130.00
2024-03-24T03:59:27.052Z,1133.00
2024-03-24T04:00:27.134Z,1124.00
2024-03-24T04:01:27.188Z,1125.00
2024-03-24T04:02:27.298Z,1129.00
2024-03-24T04:03:27.492Z,1121.00
2024-03-24T04:04:27.447Z,1122.00
2024-03-24T04:05:27.526Z,1119.00
2024-03-24T04:06:27.622Z,1111.00
2024-03-24T04:07:27.745Z,1098.00
2024-03-24T04:08:27.770Z,1092.00
2024-03-24T04:09:27.863Z,1087.00
2024-03-24T04:10:27.910Z,1091.00
2024-03-24T04:11:27.993Z,1093.00
2024-03-24T04:12:28.080Z,1095.00
2024-03-24T04:13:28.163Z,1082.00
2024-03-24T04:14:28.236Z,1092.00
2024-03-24T04:15:28.307Z,1099.00
2024-03-24T04:16:28.398Z,1096.00
2024-03-24T04:17:28.589Z,1096.00
2024-03-24T04:18:28.570Z,1103.00
2024-03-24T04:19:28.650Z,1106.00
2024-03-24T04:20:28.743Z,1102.00
2024-03-24T04:21:28.840Z,1113.00
2024-03-24T04:22:28.919Z,1126.00
2024-03-24T04:23:29.004Z,1136.00
2024-03-24T04:24:29.062Z,1145.00
2024-03-24T04:25:29.171Z,1138.00
2024-03-24T04:26:29.246Z,1131.00
2024-03-24T04:27:29.323Z,1122.00
2024-03-24T04:28:29.400Z,1123.00
2024-03-24T04:29:29.461Z,1128.00
2024-03-24T04:30:29.564Z,1122.00
2024-03-24T04:31:29.620Z,1118.00
2024-03-24T04:32:29.731Z,1123.00
2024-03-24T04:33:29.842Z,1125.00
2024-03-24T04:34:29.872Z,1122.00
2024-03-24T04:35:30.037Z,1120.00
2024-03-24T04:36:30.104Z,1128.00
2024-03-24T04:37:30.196Z,1131.00
2024-03-24T04:38:30.266Z,1138.00
2024-03-24T04:39:30.307Z,1134.00
2024-03-24T04:40:30.406Z,1142.00
2024-03-24T04:41:37.697Z,600.00
2024-03-24T04:42:37.676Z,600.00
2024-03-24T04:43:37.680Z,600.00
2024-03-24T04:44:37.686Z,600.00
2024-03-24T04:45:37.696Z,600.00
2024-03-24T04:46:37.669Z,604.00
2024-03-24T04:47:37.672Z,601.00
2024-03-24T04:48:37.676Z,603.00
2024-03-24T04:49:37.676Z,600.00
2024-03-24T04:50:37.692Z,603.00
2024-03-24T04:51:37.668Z,603.00
2024-03-24T04:52:37.682Z,605.00
2024-03-24T04:53:37.712Z,607.00
2024-03-24T04:54:37.704Z,605.00
2024-03-24T04:55:37.692Z,609.00
2024-03-24T04:56:37.682Z,605.00
2024-03-24T04:57:37.703Z,608.00
2024-03-24T04:58:37.722Z,608.00
2024-03-24T04:59:37.696Z,604.00
2024-03-24T05:00:37.704Z,607.00
2024-03-24T05:01:37.699Z,603.00
2024-03-24T05:02:37.723Z,606.00
2024-03-24T05:03:37.687Z,606.00
2024-03-24T05:04:37.720Z,608.00
2024-03-24T05:05:37.725Z,608.00
2024-03-24T05:06:37.700Z,605.00
2024-03-24T05:07:37.708Z,609.00
2024-03-24T05:08:37.757Z,609.00
2024-03-24T05:09:37.701Z,609.00
2024-03-24T05:10:37.704Z,606.00
2024-03-24T05:11:37.718Z,609.00
2024-03-24T05:12:37.708Z,603.00
2024-03-24T05:13:37.731Z,607.00
2024-03-24T05:14:37.744Z,603.00
2024-03-24T05:15:37.744Z,604.00
2024-03-24T05:16:37.764Z,602.00
2024-03-24T05:17:37.742Z,605.00
2024-03-24T05:18:37.751Z,605.00
2024-03-24T05:19:37.730Z,607.00
2024-03-24T05:20:37.727Z,606.00
2024-03-24T05:21:37.735Z,612.00
2024-03-24T05:22:37.751Z,607.00
2024-03-24T05:23:37.751Z,607.00
2024-03-24T05:24:37.722Z,606.00
2024-03-24T05:25:37.742Z,610.00
2024-03-24T05:26:37.738Z,601.00
2024-03-24T05:27:37.730Z,602.00
2024-03-24T05:28:46.536Z,604.00
2024-03-24T05:29:38.772Z,604.00
2024-03-24T05:30:37.751Z,602.00
2024-03-24T05:31:37.748Z,600.00
2024-03-24T05:32:37.740Z,600.00
2024-03-24T05:33:37.821Z,599.00
2024-03-24T05:34:37.821Z,605.00
2024-03-24T05:35:37.807Z,602.00
2024-03-24T05:36:37.807Z,603.00
2024-03-24T05:37:37.822Z,602.00
2024-03-24T05:38:37.799Z,603.00
2024-03-24T05:39:38.842Z,600.00
2024-03-24T05:40:37.918Z,602.00
2024-03-24T05:41:37.972Z,601.00
2024-03-24T05:42:37.977Z,603.00
2024-03-24T05:43:38.041Z,602.00
2024-03-24T05:44:38.108Z,605.00
2024-03-24T05:45:38.105Z,608.00
2024-03-24T05:46:38.140Z,613.00
2024-03-24T05:47:38.187Z,614.00
2024-03-24T05:48:38.236Z,609.00
2024-03-24T05:49:38.321Z,611.00
2024-03-24T05:50:38.374Z,612.00
2024-03-24T05:51:38.462Z,614.00
2024-03-24T05:52:38.526Z,614.00
2024-03-24T05:53:38.609Z,613.00
2024-03-24T05:54:38.712Z,618.00
2024-03-24T05:55:38.791Z,616.00
2024-03-24T05:56:38.887Z,616.00
2024-03-24T05:57:38.949Z,617.00
2024-03-24T05:58:39.043Z,617.00
2024-03-24T05:59:39.125Z,618.00
2024-03-24T06:00:39.196Z,618.00
2024-03-24T06:01:40.098Z,619.00
2024-03-24T06:02:39.361Z,617.00
2024-03-24T06:03:39.412Z,615.00
2024-03-24T06:04:39.475Z,617.00
2024-03-24T06:05:39.504Z,615.00
2024-03-24T06:06:39.546Z,621.00
2024-03-24T06:07:39.580Z,618.00
2024-03-24T06:08:39.618Z,617.00
2024-03-24T06:09:39.676Z,618.00
2024-03-24T06:10:39.760Z,620.00
2024-03-24T06:11:39.821Z,618.00
2024-03-24T06:12:39.835Z,619.00
2024-03-24T06:13:39.863Z,620.00
2024-03-24T06:14:39.981Z,617.00
2024-03-24T06:15:40.059Z,619.00
2024-03-24T06:16:40.103Z,618.00
2024-03-24T06:17:40.232Z,617.00
2024-03-24T06:18:40.299Z,617.00
2024-03-24T06:19:40.392Z,616.00
2024-03-24T06:20:40.446Z,617.00
2024-03-24T06:21:40.549Z,615.00
2024-03-24T06:22:40.654Z,615.00
2024-03-24T06:23:40.718Z,616.00
2024-03-24T06:24:40.785Z,611.00
2024-03-24T06:25:40.870Z,618.00
2024-03-24T06:26:40.971Z,616.00
2024-03-24T06:27:41.076Z,616.00
2024-03-24T06:28:41.166Z,625.00
2024-03-24T06:29:41.205Z,619.00
2024-03-24T06:30:41.330Z,623.00
2024-03-24T06:31:43.850Z,616.00
2024-03-24T06:32:41.397Z,616.00
2024-03-24T06:33:41.394Z,616.00
2024-03-24T06:34:41.410Z,617.00
2024-03-24T06:35:41.420Z,617.00
2024-03-24T06:36:41.381Z,622.00
2024-03-24T06:37:41.398Z,621.00
2024-03-24T06:38:41.390Z,620.00
2024-03-24T06:39:41.395Z,621.00
2024-03-24T06:40:41.391Z,619.00
2024-03-24T06:41:41.410Z,618.00
2024-03-24T06:42:41.385Z,614.00
2024-03-24T06:43:41.404Z,616.00
2024-03-24T06:44:41.425Z,613.00
2024-03-24T06:45:41.419Z,617.00
2024-03-24T06:46:41.411Z,616.00
2024-03-24T06:47:41.446Z,614.00
2024-03-24T06:48:41.430Z,615.00
2024-03-24T06:49:41.479Z,620.00
2024-03-24T06:50:41.415Z,618.00
2024-03-24T06:51:41.423Z,621.00
2024-03-24T06:52:41.440Z,619.00
2024-03-24T06:53:41.428Z,619.00
2024-03-24T06:54:41.451Z,619.00
2024-03-24T06:55:41.458Z,617.00
2024-03-24T06:56:41.454Z,621.00
2024-03-24T06:57:41.461Z,621.00
2024-03-24T06:58:41.465Z,619.00
2024-03-24T06:59:41.433Z,617.00
2024-03-24T07:00:41.471Z,616.00
2024-03-24T07:01:41.444Z,614.00
2024-03-24T07:02:41.452Z,615.00
2024-03-24T07:03:41.515Z,608.00
2024-03-24T07:04:41.554Z,604.00
2024-03-24T07:05:41.660Z,603.00
2024-03-24T07:06:41.728Z,601.00
2024-03-24T07:07:41.831Z,600.00
2024-03-24T07:08:41.910Z,600.00
2024-03-24T07:09:41.985Z,600.00
2024-03-24T07:10:42.118Z,601.00
2024-03-24T07:11:42.204Z,600.00
2024-03-24T07:12:42.305Z,604.00
2024-03-24T07:13:42.355Z,606.00
2024-03-24T07:14:42.423Z,604.00
2024-03-24T07:15:42.619Z,604.00
2024-03-24T07:16:42.629Z,605.00
2024-03-24T07:17:42.777Z,612.00
2024-03-24T07:18:42.789Z,612.00
2024-03-24T07:19:42.871Z,606.00
2024-03-24T07:20:42.962Z,606.00
2024-03-24T07:21:43.057Z,613.00
2024-03-24T07:22:43.227Z,609.00
2024-03-24T07:23:43.321Z,606.00
2024-03-24T07:24:43.417Z,604.00
2024-03-24T07:25:43.492Z,608.00
2024-03-24T07:26:43.555Z,608.00
2024-03-24T07:27:43.667Z,608.00
2024-03-24T07:28:43.801Z,607.00
2024-03-24T07:29:43.834Z,612.00
2024-03-24T07:30:43.933Z,612.00
2024-03-24T07:31:44.052Z,612.00
2024-03-24T07:32:44.118Z,613.00
2024-03-24T07:33:44.223Z,615.00
2024-03-24T07:34:44.294Z,610.00
2024-03-24T07:35:44.376Z,608.00
2024-03-24T07:36:44.469Z,611.00
2024-03-24T07:37:44.561Z,613.00
2024-03-24T07:38:44.667Z,613.00
2024-03-24T07:39:44.734Z,607.00
2024-03-24T07:40:44.869Z,607.00
2024-03-24T07:41:47.720Z,606.00
2024-03-24T07:42:44.998Z,606.00
2024-03-24T07:43:44.976Z,607.00
2024-03-24T07:44:44.994Z,606.00
2024-03-24T07:45:44.990Z,601.00
2024-03-24T07:46:44.982Z,600.00
2024-03-24T07:47:44.989Z,600.00
2024-03-24T07:49:45.000Z,605.00
2024-03-24T07:50:44.972Z,602.00
2024-03-24T07:51:44.995Z,600.00
2024-03-24T07:52:44.983Z,605.00
2024-03-24T07:53:44.991Z,604.00
2024-03-24T07:54:44.986Z,605.00
2024-03-24T07:55:44.999Z,601.00
2024-03-24T07:56:45.030Z,601.00
2024-03-24T07:57:45.001Z,602.00
2024-03-24T07:58:45.007Z,604.00
2024-03-24T07:59:44.990Z,604.00
2024-03-24T08:00:45.020Z,607.00
2024-03-24T08:01:45.002Z,606.00
2024-03-24T08:02:45.034Z,607.00
2024-03-24T08:03:45.015Z,613.00
2024-03-24T08:04:45.010Z,610.00
2024-03-24T08:05:45.023Z,613.00
2024-03-24T08:06:45.039Z,613.00
2024-03-24T08:07:45.026Z,620.00
2024-03-24T08:08:45.097Z,619.00
2024-03-24T08:09:45.032Z,617.00
2024-03-24T08:10:45.091Z,616.00
2024-03-24T08:11:45.035Z,615.00
2024-03-24T08:12:45.039Z,613.00
2024-03-24T08:13:45.047Z,607.00
2024-03-24T08:14:45.052Z,606.00
2024-03-24T08:15:45.038Z,602.00
2024-03-24T08:16:45.024Z,604.00
2024-03-24T08:17:45.043Z,601.00
2024-03-24T08:18:45.055Z,603.00
2024-03-24T08:19:45.050Z,602.00
2024-03-24T08:20:45.107Z,606.00
2024-03-24T08:21:45.120Z,606.00
2024-03-24T08:22:45.147Z,607.00
2024-03-24T08:23:45.205Z,604.00
2024-03-24T08:24:45.248Z,603.00
2024-03-24T08:25:45.306Z,602.00
2024-03-24T08:26:45.436Z,602.00
2024-03-24T08:27:45.493Z,603.00
2024-03-24T08:28:45.614Z,608.00
2024-03-24T08:29:45.709Z,605.00
2024-03-24T08:30:45.751Z,601.00
2024-03-24T08:31:45.843Z,602.00
2024-03-24T08:32:45.931Z,608.00
2024-03-24T08:33:46.038Z,606.00
2024-03-24T08:34:46.148Z,604.00
2024-03-24T08:35:46.238Z,607.00
2024-03-24T08:36:46.305Z,609.00
2024-03-24T08:37:46.427Z,610.00
2024-03-24T08:38:46.481Z,608.00
2024-03-24T08:39:46.530Z,604.00
2024-03-24T08:40:46.636Z,600.00
2024-03-24T08:41:46.809Z,600.00
2024-03-24T08:42:46.819Z,603.00
2024-03-24T08:43:46.912Z,601.00
2024-03-24T08:44:47.016Z,601.00
2024-03-24T08:45:47.102Z,609.00
2024-03-24T08:46:47.201Z,607.00
2024-03-24T08:47:47.288Z,608.00
2024-03-24T08:48:47.429Z,611.00
2024-03-24T08:49:47.460Z,607.00
2024-03-24T08:50:47.573Z,611.00
2024-03-24T08:51:47.628Z,611.00
2024-03-24T08:52:47.724Z,607.00
2024-03-24T08:53:47.824Z,607.00
2024-03-24T08:54:47.917Z,607.00
2024-03-24T08:55:47.999Z,610.00
2024-03-24T08:56:48.087Z,608.00
2024-03-24T08:57:48.193Z,618.00
2024-03-24T08:58:48.297Z,604.00
2024-03-24T08:59:48.366Z,605.00
2024-03-24T09:00:48.463Z,611.00
2024-03-24T09:01:48.565Z,604.00
2024-03-24T09:02:48.633Z,606.00
2024-03-24T09:03:48.703Z,608.00
2024-03-24T09:04:48.796Z,608.00
2024-03-24T09:05:48.889Z,606.00
2024-03-24T09:06:48.960Z,609.00
2024-03-24T09:07:49.092Z,601.00
2024-03-24T09:08:49.183Z,604.00
2024-03-24T09:09:49.264Z,604.00
2024-03-24T09:10:49.362Z,601.00
2024-03-24T09:11:49.445Z,603.00
2024-03-24T09:12:49.511Z,600.00
2024-03-24T09:13:49.631Z,602.00
2024-03-24T09:14:49.710Z,604.00
2024-03-24T09:15:49.787Z,602.00
2024-03-24T09:16:49.860Z,609.00
2024-03-24T09:17:49.956Z,609.00
2024-03-24T09:18:50.042Z,608.00
2024-03-24T09:19:50.139Z,602.00
2024-03-24T09:20:50.184Z,606.00
2024-03-24T09:21:50.294Z,601.00
2024-03-24T09:22:50.352Z,600.00
2024-03-24T09:23:52.859Z,606.00
2024-03-24T09:24:50.451Z,611.00
2024-03-24T09:25:50.473Z,612.00
2024-03-24T09:26:50.463Z,616.00
2024-03-24T09:27:50.475Z,617.00
2024-03-24T09:28:50.477Z,616.00
2024-03-24T09:29:50.478Z,617.00
2024-03-24T09:30:50.502Z,617.00
2024-03-24T09:31:50.479Z,619.00
2024-03-24T09:32:50.467Z,621.00
2024-03-24T09:33:50.479Z,623.00
2024-03-24T09:34:53.597Z,627.00
2024-03-24T09:35:51.485Z,627.00
2024-03-24T09:36:50.504Z,628.00
2024-03-24T09:37:50.508Z,629.00
2024-03-24T09:38:50.496Z,627.00
2024-03-24T09:39:50.490Z,630.00
2024-03-24T09:40:50.537Z,628.00
2024-03-24T09:41:50.541Z,625.00
2024-03-24T09:42:50.548Z,628.00
2024-03-24T09:43:50.536Z,624.00
2024-03-24T09:44:50.591Z,627.00
2024-03-24T09:45:50.553Z,628.00
2024-03-24T09:46:50.618Z,631.00
2024-03-24T09:47:50.724Z,634.00
2024-03-24T09:48:50.777Z,630.00
2024-03-24T09:49:50.850Z,635.00
2024-03-24T09:50:50.962Z,636.00
2024-03-24T09:51:51.023Z,634.00
2024-03-24T09:52:51.113Z,641.00
2024-03-24T09:53:51.172Z,645.00
2024-03-24T09:54:51.272Z,645.00
2024-03-24T09:55:51.350Z,650.00
2024-03-24T09:56:51.455Z,649.00
2024-03-24T09:57:57.182Z,651.00
2024-03-24T09:58:52.542Z,651.00
2024-03-24T09:59:51.524Z,651.00
2024-03-24T10:00:51.528Z,652.00
2024-03-24T10:01:51.534Z,654.00
2024-03-24T10:02:51.543Z,656.00
2024-03-24T10:03:51.550Z,655.00
2024-03-24T10:04:51.544Z,655.00
2024-03-24T10:05:51.547Z,658.00
2024-03-24T10:06:51.551Z,659.00
2024-03-24T10:07:51.529Z,657.00
2024-03-24T10:08:51.598Z,661.00
2024-03-24T10:09:51.690Z,666.00
2024-03-24T10:10:51.806Z,671.00
2024-03-24T10:11:51.882Z,670.00
2024-03-24T10:12:51.937Z,661.00
2024-03-24T10:13:52.103Z,666.00
2024-03-24T10:14:52.171Z,665.00
2024-03-24T10:15:52.240Z,671.00
2024-03-24T10:16:52.301Z,664.00
2024-03-24T10:17:52.427Z,664.00
2024-03-24T10:18:52.492Z,679.00
2024-03-24T10:19:52.603Z,674.00
2024-03-24T10:20:52.712Z,685.00
2024-03-24T10:21:52.889Z,669.00
2024-03-24T10:22:52.891Z,680.00
2024-03-24T10:23:52.978Z,681.00
2024-03-24T10:24:53.074Z,690.00
2024-03-24T10:25:53.166Z,688.00
2024-03-24T10:26:53.247Z,696.00
2024-03-24T10:27:53.332Z,694.00
2024-03-24T10:28:53.422Z,701.00
2024-03-24T10:29:53.519Z,703.00
2024-03-24T10:30:53.592Z,705.00
2024-03-24T10:31:53.692Z,701.00
2024-03-24T10:32:53.784Z,713.00
2024-03-24T10:33:53.853Z,695.00
2024-03-24T10:34:53.943Z,695.00
2024-03-24T10:35:54.068Z,700.00
2024-03-24T10:36:54.110Z,698.00
2024-03-24T10:37:54.224Z,703.00
2024-03-24T10:38:54.331Z,724.00
2024-03-24T10:39:54.369Z,705.00
2024-03-24T10:40:55.114Z,705.00
2024-03-24T10:41:54.552Z,704.00
2024-03-24T10:42:54.562Z,722.00
2024-03-24T10:43:54.597Z,711.00
2024-03-24T10:44:54.674Z,710.00
2024-03-24T10:45:54.675Z,702.00
2024-03-24T10:46:54.750Z,707.00
2024-03-24T10:47:54.777Z,714.00
2024-03-24T10:48:54.808Z,717.00
2024-03-24T10:49:54.841Z,708.00
2024-03-24T10:50:54.879Z,712.00
2024-03-24T10:51:54.923Z,710.00
2024-03-24T10:52:56.238Z,732.00
2024-03-24T10:53:55.113Z,721.00
2024-03-24T10:54:55.171Z,738.00
2024-03-24T10:55:55.166Z,727.00
2024-03-24T10:56:55.188Z,733.00
2024-03-24T10:57:55.243Z,735.00
2024-03-24T10:58:55.319Z,732.00
2024-03-24T10:59:55.354Z,729.00
2024-03-24T11:00:55.359Z,730.00
2024-03-24T11:01:55.420Z,737.00
2024-03-24T11:02:55.432Z,717.00
2024-03-24T11:03:55.490Z,717.00
2024-03-24T11:04:55.529Z,722.00
2024-03-24T11:05:55.549Z,717.00
2024-03-24T11:06:55.647Z,720.00
2024-03-24T11:07:55.762Z,713.00
2024-03-24T11:08:55.835Z,718.00
2024-03-24T11:09:55.940Z,709.00
2024-03-24T11:10:56.045Z,710.00
2024-03-24T11:11:56.146Z,697.00
2024-03-24T11:12:56.223Z,710.00
2024-03-24T11:13:56.333Z,703.00
2024-03-24T11:14:56.419Z,693.00
2024-03-24T11:15:56.530Z,712.00
2024-03-24T11:16:56.619Z,697.00
2024-03-24T11:17:56.743Z,693.00
2024-03-24T11:18:57.271Z,688.00
2024-03-24T11:19:56.966Z,699.00
2024-03-24T11:20:57.084Z,706.00
2024-03-24T11:21:57.147Z,710.00
2024-03-24T11:22:57.252Z,704.00
2024-03-24T11:23:57.304Z,705.00
2024-03-24T11:24:57.407Z,704.00
2024-03-24T11:25:57.524Z,700.00
2024-03-24T11:26:57.622Z,695.00
2024-03-24T11:27:57.735Z,701.00
2024-03-24T11:28:57.839Z,705.00
2024-03-24T11:29:57.909Z,695.00
2024-03-24T11:30:58.018Z,698.00
2024-03-24T11:31:58.105Z,692.00
2024-03-24T11:32:58.176Z,692.00
2024-03-24T11:33:58.292Z,705.00
2024-03-24T11:34:58.419Z,692.00
2024-03-24T11:35:58.466Z,692.00
2024-03-24T11:36:58.572Z,698.00
2024-03-24T11:37:58.685Z,704.00
2024-03-24T11:38:58.754Z,696.00
2024-03-24T11:39:58.902Z,698.00
2024-03-24T11:40:58.979Z,701.00
2024-03-24T11:41:59.071Z,686.00
2024-03-24T11:42:59.176Z,684.00
2024-03-24T11:43:59.289Z,688.00
2024-03-24T11:44:59.391Z,680.00
2024-03-24T11:45:59.494Z,664.00
2024-03-24T11:46:59.609Z,666.00
2024-03-24T11:47:59.681Z,676.00
2024-03-24T11:48:59.762Z,662.00
2024-03-24T11:49:59.886Z,674.00
2024-03-24T11:50:59.955Z,674.00
2024-03-24T11:52:00.085Z,676.00
2024-03-24T11:53:00.177Z,665.00
2024-03-24T11:54:00.268Z,667.00
2024-03-24T11:55:00.375Z,667.00
2024-03-24T11:56:00.486Z,672.00
2024-03-24T11:57:00.575Z,665.00
2024-03-24T11:58:00.667Z,663.00
2024-03-24T11:59:00.764Z,673.00
2024-03-24T12:00:00.877Z,664.00
2024-03-24T12:01:00.978Z,663.00
2024-03-24T12:02:01.043Z,664.00
2024-03-24T12:03:01.171Z,662.00
2024-03-24T12:04:01.247Z,665.00
2024-03-24T12:05:01.442Z,664.00
2024-03-24T12:06:01.497Z,661.00
2024-03-24T12:07:01.545Z,660.00
2024-03-24T12:08:01.650Z,663.00
2024-03-24T12:09:01.747Z,664.00
2024-03-24T12:10:01.887Z,661.00
2024-03-24T12:11:01.975Z,662.00
2024-03-24T12:12:02.045Z,657.00
2024-03-24T12:13:02.196Z,658.00
2024-03-24T12:14:02.300Z,657.00
2024-03-24T12:15:02.410Z,659.00
2024-03-24T12:16:02.517Z,656.00
2024-03-24T12:17:02.600Z,656.00
2024-03-24T12:18:02.686Z,660.00
2024-03-24T12:19:02.807Z,664.00
2024-03-24T12:20:02.931Z,658.00
2024-03-24T12:21:03.995Z,657.00
2024-03-24T12:22:03.135Z,656.00
2024-03-24T12:23:03.208Z,650.00